EPWA/WAW METAR and TAF weather

Enter ICAO airport designator
Station Type Date Time Source
EPWA METAR 2019/08/21 22:00 UTC NOAA

EPWA 212200Z 30003KT CAVOK 16/13 Q1028 NOSIG


Station Type Date Time Source
EPWA Decoded METAR 2019/08/21 22:00 UTC NOAA

Station name not available
Aug 21, 2019 - 06:00 PM EDT / 2019.08.21 2200 UTC
Wind: from the WNW (300 degrees) at 3 MPH (3 KT):0
Visibility: greater than 7 mile(s):0
Temperature: 60 F (16 C)
Dew Point: 55 F (13 C)
Relative Humidity: 82%
Pressure (altimeter): 30.36 in. Hg (1028 hPa)
ob: EPWA 212200Z 30003KT CAVOK 16/13 Q1028 NOSIG
cycle: 22

Station Type Date Time Source
EPWA TAF 2019/08/21 21:36 UTC NOAA

TAF EPWA 212030Z 2121/2221 VRB04KT CAVOK
TEMPO 2200/2206 3000 BR PROB40 2202/2205 0600 FG BKN002
BECMG 2205/2207 03010KT

Example: see airport list